Time;durP1;ratioP1;P1;durP2;ratioP2;P2;SDS_P1;SDS_P2;PMS_P1;PMS_P2;Temp;Humidity;BMP_temperature;BMP_pressure;BME280_temperature;BME280_humidity;BME280_pressure;Samples;Min_cycle;Max_cycle;Signal;HPM_P1;HPM_P2
2022/11/16 00:01:29;;;;;;;;;;;10.90;88.50;;;;;;4993635;28;19913;-44
2022/11/16 00:03:58;;;;;;;;;;;10.90;88.40;;;;;;5013615;28;20368;-46
2022/11/16 00:06:24;;;;;;;;;;;10.90;88.50;;;;;;5016752;28;20343;-44
2022/11/16 00:11:41;;;;;;;;;;;10.90;88.50;;;;;;4997708;28;20274;-44
2022/11/16 00:14:08;;;;;;;;;;;10.90;88.60;;;;;;4997685;28;19909;-44
2022/11/16 00:16:34;;;;;;;;;;;10.90;88.40;;;;;;4996510;28;19914;-44
2022/11/16 00:19:02;;;;;;;;;;;10.90;88.30;;;;;;5016549;28;19947;-44
2022/11/16 00:21:29;;;;;;;;;;;10.90;88.30;;;;;;5015887;28;19917;-44
2022/11/16 00:23:56;;;;;;;;;;;10.90;88.30;;;;;;5016163;28;19992;-45
2022/11/16 00:26:23;;;;;;;;;;;10.90;88.40;;;;;;5016943;28;19964;-44
2022/11/16 00:28:51;;;;;;;;;;;10.90;88.40;;;;;;5015204;28;20317;-47
2022/11/16 00:31:18;;;;;;;;;;;10.90;88.30;;;;;;5000110;28;19910;-46
2022/11/16 00:33:45;;;;;;;;;;;10.90;88.20;;;;;;4997418;28;19905;-44
2022/11/16 00:36:12;;;;;;;;;;;10.90;88.20;;;;;;4997117;28;19913;-44
2022/11/16 00:38:39;;;;;;;;;;;10.90;88.20;;;;;;5009842;28;20292;-43
2022/11/16 00:41:07;;;;;;;;;;;10.90;88.20;;;;;;4999882;28;19913;-45
2022/11/16 00:43:37;;;;;;;;;;;10.90;88.20;;;;;;4996962;28;19917;-44
2022/11/16 00:46:04;;;;;;;;;;;10.90;88.20;;;;;;5012612;28;19913;-45
2022/11/16 00:48:33;;;;;;;;;;;10.90;88.10;;;;;;5008120;28;19909;-44
2022/11/16 00:51:00;;;;;;;;;;;10.90;88.10;;;;;;5016369;28;19906;-43
2022/11/16 00:53:27;;;;;;;;;;;10.90;88.10;;;;;;5014690;28;20331;-44
2022/11/16 00:55:54;;;;;;;;;;;10.90;88.00;;;;;;5012728;28;19917;-43
2022/11/16 00:58:20;;;;;;;;;;;10.90;88.00;;;;;;4996886;28;20337;-45
2022/11/16 01:00:47;;;;;;;;;;;10.90;88.10;;;;;;5012281;28;20357;-43
2022/11/16 01:03:14;;;;;;;;;;;10.90;88.20;;;;;;5015962;28;19909;-44
2022/11/16 01:05:41;;;;;;;;;;;10.90;88.50;;;;;;5005991;28;20251;-44
2022/11/16 01:08:08;;;;;;;;;;;10.90;88.80;;;;;;5001685;28;19996;-43
2022/11/16 01:10:36;;;;;;;;;;;10.80;88.90;;;;;;5006742;28;19970;-44
2022/11/16 01:13:03;;;;;;;;;;;10.80;89.10;;;;;;5002969;28;20283;-42
2022/11/16 01:15:29;;;;;;;;;;;10.80;89.20;;;;;;5010905;28;19910;-44
2022/11/16 01:17:55;;;;;;;;;;;10.80;89.20;;;;;;4999312;28;19928;-42
2022/11/16 01:20:24;;;;;;;;;;;10.80;89.30;;;;;;5015978;28;19917;-43
2022/11/16 01:22:51;;;;;;;;;;;10.80;89.40;;;;;;5008969;28;19936;-43
2022/11/16 01:25:18;;;;;;;;;;;10.70;89.50;;;;;;5013583;28;19913;-42
2022/11/16 01:27:45;;;;;;;;;;;10.70;89.70;;;;;;5015152;28;20362;-44
2022/11/16 01:30:14;;;;;;;;;;;10.60;89.80;;;;;;5015942;28;19909;-43
2022/11/16 01:32:41;;;;;;;;;;;10.60;89.90;;;;;;5011204;28;19909;-42
2022/11/16 01:35:09;;;;;;;;;;;10.60;90.00;;;;;;4996302;28;19920;-43
2022/11/16 01:37:35;;;;;;;;;;;10.60;90.00;;;;;;4996340;28;19909;-43
2022/11/16 01:40:04;;;;;;;;;;;10.60;90.00;;;;;;5012648;28;19988;-43
2022/11/16 01:42:32;;;;;;;;;;;10.60;90.00;;;;;;5015611;28;20052;-43
2022/11/16 01:45:07;;;;;;;;;;;10.60;90.00;;;;;;5015881;28;19917;-43
2022/11/16 01:47:33;;;;;;;;;;;10.50;90.10;;;;;;4998618;28;19914;-43
2022/11/16 01:50:06;;;;;;;;;;;10.50;90.20;;;;;;5012181;28;19920;-44
2022/11/16 01:52:34;;;;;;;;;;;10.50;90.30;;;;;;5015777;28;19956;-44
2022/11/16 01:55:01;;;;;;;;;;;10.50;90.30;;;;;;5013449;28;19910;-44
2022/11/16 01:57:31;;;;;;;;;;;10.50;90.40;;;;;;5015328;28;19912;-44
2022/11/16 01:59:59;;;;;;;;;;;10.50;90.40;;;;;;5013606;28;19906;-45
2022/11/16 02:02:26;;;;;;;;;;;10.40;90.50;;;;;;5010484;28;20318;-45
2022/11/16 02:04:53;;;;;;;;;;;10.40;90.50;;;;;;4995638;28;19913;-46
2022/11/16 02:07:28;;;;;;;;;;;10.40;90.60;;;;;;4994901;28;20312;-45
2022/11/16 02:10:19;;;;;;;;;;;10.40;90.60;;;;;;5008171;28;20322;-46
2022/11/16 02:13:03;;;;;;;;;;;10.40;90.60;;;;;;4996268;28;19916;-49
2022/11/16 02:15:34;;;;;;;;;;;10.40;90.50;;;;;;4995486;28;19917;-47
2022/11/16 02:18:12;;;;;;;;;;;10.40;90.40;;;;;;4995857;28;20208;-47
2022/11/16 02:20:43;;;;;;;;;;;10.40;90.30;;;;;;4998830;28;20315;-45
2022/11/16 02:23:29;;;;;;;;;;;10.40;90.20;;;;;;4995312;28;19952;-45
2022/11/16 02:26:15;;;;;;;;;;;10.50;90.00;;;;;;5012114;28;19934;-45
2022/11/16 02:29:02;;;;;;;;;;;10.50;89.90;;;;;;5012024;28;20003;-46
2022/11/16 02:31:33;;;;;;;;;;;10.50;89.80;;;;;;5014874;28;19913;-46
2022/11/16 02:34:02;;;;;;;;;;;10.50;89.70;;;;;;4995725;28;20330;-46
2022/11/16 02:36:31;;;;;;;;;;;10.50;89.60;;;;;;5012471;28;19960;-46
2022/11/16 02:39:00;;;;;;;;;;;10.50;89.50;;;;;;5013805;28;20271;-50
2022/11/16 02:41:27;;;;;;;;;;;10.50;89.50;;;;;;5014206;28;19913;-47
2022/11/16 02:44:01;;;;;;;;;;;10.50;89.70;;;;;;4994588;28;19914;-49
2022/11/16 02:46:29;;;;;;;;;;;10.50;89.50;;;;;;4994461;28;20248;-48
2022/11/16 02:48:57;;;;;;;;;;;10.50;89.60;;;;;;4995022;28;20000;-48
2022/11/16 02:51:25;;;;;;;;;;;10.50;89.80;;;;;;4995352;28;19910;-49
2022/11/16 02:54:14;;;;;;;;;;;10.50;90.00;;;;;;4994870;28;19920;-48
2022/11/16 02:56:46;;;;;;;;;;;10.40;90.30;;;;;;5008891;28;20243;-51
2022/11/16 02:59:13;;;;;;;;;;;10.40;90.40;;;;;;4994412;28;19956;-49
2022/11/16 03:01:42;;;;;;;;;;;10.40;90.50;;;;;;4994191;28;19909;-50
2022/11/16 03:04:19;;;;;;;;;;;10.40;90.60;;;;;;4994948;28;19910;-49
2022/11/16 03:06:46;;;;;;;;;;;10.40;90.70;;;;;;5006898;28;19940;-49
2022/11/16 03:09:17;;;;;;;;;;;10.30;90.80;;;;;;4994389;28;20327;-52
2022/11/16 03:12:01;;;;;;;;;;;10.30;90.90;;;;;;5006879;28;20366;-50
2022/11/16 03:14:45;;;;;;;;;;;10.30;90.90;;;;;;4994439;28;19906;-53
2022/11/16 03:17:17;;;;;;;;;;;10.20;91.00;;;;;;5002492;28;19951;-57
2022/11/16 03:19:50;;;;;;;;;;;10.20;91.00;;;;;;5013689;28;19949;-59
2022/11/16 03:22:30;;;;;;;;;;;10.20;91.10;;;;;;4995549;28;19914;-58
2022/11/16 03:24:57;;;;;;;;;;;10.20;91.20;;;;;;4997602;28;19915;-60
2022/11/16 03:27:47;;;;;;;;;;;10.20;91.30;;;;;;5012720;28;19906;-56
2022/11/16 03:30:31;;;;;;;;;;;10.20;91.40;;;;;;4996242;28;19913;-56
2022/11/16 03:33:15;;;;;;;;;;;10.20;91.70;;;;;;4994169;28;20343;-52
2022/11/16 03:35:46;;;;;;;;;;;10.10;91.70;;;;;;5003669;28;20350;-53
2022/11/16 03:38:13;;;;;;;;;;;10.10;91.80;;;;;;5000164;28;20335;-48
2022/11/16 03:40:40;;;;;;;;;;;10.00;92.00;;;;;;5011776;28;20309;-49
2022/11/16 03:43:07;;;;;;;;;;;10.00;92.00;;;;;;5012947;28;19905;-49
2022/11/16 03:45:34;;;;;;;;;;;10.00;92.10;;;;;;4995663;28;19921;-50
2022/11/16 03:48:00;;;;;;;;;;;10.00;92.10;;;;;;5011866;28;19975;-48
2022/11/16 03:50:27;;;;;;;;;;;9.90;92.10;;;;;;5013774;28;19905;-49
2022/11/16 03:52:56;;;;;;;;;;;9.90;92.20;;;;;;4999039;28;19910;-48
2022/11/16 03:55:23;;;;;;;;;;;9.90;92.20;;;;;;4997719;28;19913;-49
2022/11/16 03:57:49;;;;;;;;;;;9.90;92.30;;;;;;5013561;28;19905;-52
2022/11/16 04:00:16;;;;;;;;;;;9.90;92.30;;;;;;5013513;28;19909;-51
2022/11/16 04:02:42;;;;;;;;;;;9.90;92.30;;;;;;5009729;28;20012;-50
2022/11/16 04:24:42;;;;;;;;;;;9.80;92.70;;;;;;4999038;28;19917;-50
2022/11/16 04:29:57;;;;;;;;;;;9.80;92.70;;;;;;5002726;28;20007;-50
2022/11/16 04:37:55;;;;;;;;;;;9.70;92.80;;;;;;4993592;28;19979;-52
2022/11/16 04:40:23;;;;;;;;;;;9.70;92.80;;;;;;4993433;28;19952;-53
2022/11/16 04:42:51;;;;;;;;;;;9.60;92.80;;;;;;5010169;28;20440;-52
2022/11/16 04:48:04;;;;;;;;;;;9.60;92.90;;;;;;5012464;28;20381;-49
2022/11/16 04:50:31;;;;;;;;;;;9.50;92.90;;;;;;5013392;28;19905;-51
2022/11/16 04:52:58;;;;;;;;;;;9.60;92.90;;;;;;4997175;28;19929;-55
2022/11/16 04:55:25;;;;;;;;;;;9.50;93.00;;;;;;4995958;28;19949;-53
2022/11/16 04:57:52;;;;;;;;;;;9.50;93.00;;;;;;5014415;28;19963;-53
2022/11/16 05:00:19;;;;;;;;;;;9.50;93.00;;;;;;5001530;28;19913;-55
2022/11/16 05:02:46;;;;;;;;;;;9.50;93.10;;;;;;5012093;28;20347;-50
2022/11/16 05:05:13;;;;;;;;;;;9.50;93.10;;;;;;4997042;28;20243;-49
2022/11/16 05:07:41;;;;;;;;;;;9.50;93.10;;;;;;5009752;28;19924;-53
2022/11/16 05:10:07;;;;;;;;;;;9.50;93.20;;;;;;5012083;28;19917;-50
2022/11/16 05:12:34;;;;;;;;;;;9.50;93.10;;;;;;5010390;28;20441;-56
2022/11/16 05:15:01;;;;;;;;;;;9.40;93.20;;;;;;5011024;28;20347;-49
2022/11/16 05:17:27;;;;;;;;;;;9.40;93.20;;;;;;4995598;28;20274;-48
2022/11/16 05:22:38;;;;;;;;;;;9.40;93.20;;;;;;5016117;28;19924;-49
2022/11/16 05:25:06;;;;;;;;;;;9.40;93.20;;;;;;5006176;28;19952;-50
2022/11/16 05:27:36;;;;;;;;;;;9.40;93.20;;;;;;5008118;28;20323;-49
2022/11/16 05:30:02;;;;;;;;;;;9.40;93.20;;;;;;5015626;28;20326;-49
2022/11/16 05:32:31;;;;;;;;;;;9.40;93.30;;;;;;5009796;28;19925;-50
2022/11/16 05:34:58;;;;;;;;;;;9.40;93.20;;;;;;5015690;28;19975;-52
2022/11/16 05:37:25;;;;;;;;;;;9.30;93.20;;;;;;5006416;28;20315;-54
2022/11/16 05:39:53;;;;;;;;;;;9.30;93.30;;;;;;5014536;28;19959;-55
2022/11/16 05:42:20;;;;;;;;;;;9.30;93.30;;;;;;5014492;28;20380;-56
2022/11/16 05:44:47;;;;;;;;;;;9.30;93.30;;;;;;5010764;28;19929;-54
2022/11/16 05:47:14;;;;;;;;;;;9.30;93.30;;;;;;4996089;28;19933;-58
2022/11/16 05:49:41;;;;;;;;;;;9.20;93.40;;;;;;5007351;28;19956;-57
2022/11/16 05:52:07;;;;;;;;;;;9.20;93.40;;;;;;5015468;28;19999;-55
2022/11/16 05:54:34;;;;;;;;;;;9.20;93.40;;;;;;4995435;28;19910;-56
2022/11/16 05:57:01;;;;;;;;;;;9.20;93.50;;;;;;4999676;28;19948;-57
2022/11/16 05:59:28;;;;;;;;;;;9.20;93.50;;;;;;5013947;28;19905;-52
2022/11/16 06:01:55;;;;;;;;;;;9.20;93.50;;;;;;5000976;28;19913;-51
2022/11/16 06:04:21;;;;;;;;;;;9.10;93.40;;;;;;4994877;28;19920;-50
2022/11/16 06:06:47;;;;;;;;;;;9.10;93.50;;;;;;5012943;28;20020;-49
2022/11/16 06:09:13;;;;;;;;;;;9.10;93.60;;;;;;5000557;28;19996;-48
2022/11/16 06:11:40;;;;;;;;;;;9.10;93.50;;;;;;4995670;28;19932;-50
2022/11/16 06:14:07;;;;;;;;;;;9.10;93.60;;;;;;4999598;28;20000;-55
2022/11/16 06:16:33;;;;;;;;;;;9.10;93.60;;;;;;4994201;28;19910;-49
2022/11/16 06:19:03;;;;;;;;;;;9.10;93.60;;;;;;5016112;28;20362;-51
2022/11/16 06:21:29;;;;;;;;;;;9.00;93.50;;;;;;5005253;28;19932;-51
2022/11/16 06:23:55;;;;;;;;;;;9.00;93.50;;;;;;4995501;28;19910;-55
2022/11/16 06:26:22;;;;;;;;;;;9.00;93.60;;;;;;4995405;28;20362;-55
2022/11/16 06:28:48;;;;;;;;;;;9.00;93.60;;;;;;5012991;28;19909;-59
2022/11/16 06:31:13;;;;;;;;;;;9.00;93.60;;;;;;4998747;28;19916;-59
2022/11/16 06:33:40;;;;;;;;;;;9.00;93.60;;;;;;4995124;28;19910;-59
2022/11/16 06:36:07;;;;;;;;;;;8.90;93.60;;;;;;5012340;28;19913;-59
2022/11/16 06:38:34;;;;;;;;;;;9.00;93.60;;;;;;5013585;28;20259;-59
2022/11/16 06:41:03;;;;;;;;;;;8.90;93.60;;;;;;5013518;28;19909;-59
2022/11/16 06:43:30;;;;;;;;;;;8.90;93.60;;;;;;5013706;28;19917;-58
2022/11/16 06:45:57;;;;;;;;;;;8.90;93.60;;;;;;5007910;28;19909;-59
2022/11/16 06:48:27;;;;;;;;;;;8.90;93.70;;;;;;4994853;28;19906;-58
2022/11/16 06:50:54;;;;;;;;;;;8.80;93.60;;;;;;4994993;28;19964;-55
2022/11/16 06:53:21;;;;;;;;;;;8.90;93.60;;;;;;5004933;28;20223;-57
2022/11/16 06:55:47;;;;;;;;;;;8.90;93.60;;;;;;5009309;28;19913;-56
2022/11/16 06:58:15;;;;;;;;;;;8.90;93.60;;;;;;5001646;28;19932;-58
2022/11/16 07:00:42;;;;;;;;;;;8.90;93.70;;;;;;5014323;28;20081;-56
2022/11/16 07:03:08;;;;;;;;;;;8.90;93.70;;;;;;5008394;28;19917;-57
2022/11/16 07:05:38;;;;;;;;;;;8.80;93.60;;;;;;5005062;28;19925;-58
2022/11/16 07:08:03;;;;;;;;;;;8.90;93.60;;;;;;5013971;28;19917;-56
2022/11/16 07:10:29;;;;;;;;;;;8.80;93.60;;;;;;5014327;28;19924;-57
2022/11/16 07:12:59;;;;;;;;;;;8.90;93.70;;;;;;5004446;28;20235;-59
2022/11/16 07:15:26;;;;;;;;;;;8.90;93.70;;;;;;5012728;28;19905;-57
2022/11/16 07:17:53;;;;;;;;;;;8.90;93.60;;;;;;5014018;28;19905;-57
2022/11/16 07:20:19;;;;;;;;;;;8.90;93.70;;;;;;4996779;28;19972;-55
2022/11/16 07:22:46;;;;;;;;;;;8.90;93.70;;;;;;4996462;28;19936;-51
2022/11/16 07:25:13;;;;;;;;;;;8.90;93.60;;;;;;4997530;28;20298;-52
2022/11/16 07:27:40;;;;;;;;;;;8.90;93.70;;;;;;4994452;28;20343;-49
2022/11/16 07:30:07;;;;;;;;;;;8.90;93.70;;;;;;5006981;28;19909;-48
2022/11/16 07:32:33;;;;;;;;;;;8.80;93.70;;;;;;4993061;28;19928;-49
2022/11/16 07:34:59;;;;;;;;;;;8.80;93.80;;;;;;5013491;28;19913;-52
2022/11/16 07:37:28;;;;;;;;;;;8.90;93.80;;;;;;5005633;28;19910;-53
2022/11/16 07:39:58;;;;;;;;;;;8.90;93.80;;;;;;4994384;28;19914;-53
2022/11/16 07:42:25;;;;;;;;;;;8.90;93.80;;;;;;5009521;28;19910;-50
2022/11/16 07:44:52;;;;;;;;;;;8.80;93.80;;;;;;5011941;28;20516;-51
2022/11/16 07:47:18;;;;;;;;;;;8.80;93.70;;;;;;5008418;28;19963;-50
2022/11/16 07:49:47;;;;;;;;;;;8.80;93.70;;;;;;5013680;28;19909;-49
2022/11/16 07:52:14;;;;;;;;;;;8.80;93.70;;;;;;5013741;28;19905;-52
2022/11/16 07:54:41;;;;;;;;;;;8.70;93.70;;;;;;5009042;28;19992;-48
2022/11/16 07:57:10;;;;;;;;;;;8.80;93.80;;;;;;4998459;28;20000;-49
2022/11/16 07:59:37;;;;;;;;;;;8.80;93.70;;;;;;5013658;28;20299;-49
2022/11/16 08:02:03;;;;;;;;;;;8.80;93.70;;;;;;4997072;28;20008;-49
2022/11/16 08:04:30;;;;;;;;;;;8.80;93.60;;;;;;4994001;28;20397;-53
2022/11/16 08:06:57;;;;;;;;;;;8.80;93.70;;;;;;5007815;28;19956;-55
2022/11/16 08:09:24;;;;;;;;;;;8.80;93.80;;;;;;5000268;28;19916;-50
2022/11/16 08:11:51;;;;;;;;;;;8.80;93.70;;;;;;4997796;28;19914;-51
2022/11/16 08:14:18;;;;;;;;;;;8.80;93.70;;;;;;5011568;28;19948;-52
2022/11/16 08:16:45;;;;;;;;;;;8.70;93.70;;;;;;5011504;28;19916;-55
2022/11/16 08:19:11;;;;;;;;;;;8.80;93.80;;;;;;5009006;28;20366;-53
2022/11/16 08:21:38;;;;;;;;;;;8.70;93.80;;;;;;4999738;28;20012;-55
2022/11/16 08:24:05;;;;;;;;;;;8.80;93.80;;;;;;5013449;28;20234;-57
2022/11/16 08:26:33;;;;;;;;;;;8.80;93.80;;;;;;4997609;28;19922;-57
2022/11/16 08:29:00;;;;;;;;;;;8.70;93.80;;;;;;5014825;28;20241;-57
2022/11/16 08:31:30;;;;;;;;;;;8.80;93.70;;;;;;5013791;28;20398;-58
2022/11/16 08:33:58;;;;;;;;;;;8.70;93.70;;;;;;5012774;28;20339;-59
2022/11/16 08:36:25;;;;;;;;;;;8.70;93.80;;;;;;4997091;28;19972;-57
2022/11/16 08:38:51;;;;;;;;;;;8.70;93.80;;;;;;5007377;28;20008;-60
2022/11/16 08:41:18;;;;;;;;;;;8.70;93.80;;;;;;5016098;28;19949;-59
2022/11/16 08:43:46;;;;;;;;;;;8.70;93.80;;;;;;5015910;28;19921;-60
2022/11/16 08:46:13;;;;;;;;;;;8.70;93.90;;;;;;5002592;28;19968;-61
2022/11/16 08:48:40;;;;;;;;;;;8.70;93.80;;;;;;5012477;28;20327;-61
2022/11/16 08:51:08;;;;;;;;;;;8.70;93.90;;;;;;5010113;28;20351;-59
2022/11/16 08:53:37;;;;;;;;;;;8.60;93.90;;;;;;5016796;28;20277;-60
2022/11/16 08:56:07;;;;;;;;;;;8.70;93.90;;;;;;5011553;28;19913;-61
2022/11/16 08:58:34;;;;;;;;;;;8.70;93.90;;;;;;5004547;28;19909;-60
2022/11/16 09:01:08;;;;;;;;;;;8.70;93.90;;;;;;5008044;28;19947;-60
2022/11/16 09:03:36;;;;;;;;;;;8.60;93.90;;;;;;4996873;28;19913;-62
2022/11/16 09:06:04;;;;;;;;;;;8.60;94.00;;;;;;4996335;28;19910;-60
2022/11/16 09:08:31;;;;;;;;;;;8.60;94.00;;;;;;5004142;28;19920;-60
2022/11/16 09:10:58;;;;;;;;;;;8.60;94.10;;;;;;5016413;28;19916;-59
2022/11/16 09:13:24;;;;;;;;;;;8.60;94.00;;;;;;5014454;28;20342;-60
2022/11/16 09:15:58;;;;;;;;;;;8.60;94.10;;;;;;5011408;28;20000;-62
2022/11/16 09:18:26;;;;;;;;;;;8.60;94.00;;;;;;4996543;28;19964;-61
2022/11/16 09:20:53;;;;;;;;;;;8.60;94.00;;;;;;4997403;28;20259;-62
2022/11/16 09:23:20;;;;;;;;;;;8.60;94.00;;;;;;4996697;28;20017;-62
2022/11/16 09:25:47;;;;;;;;;;;8.60;94.00;;;;;;4996610;28;19905;-61
2022/11/16 09:28:17;;;;;;;;;;;8.60;94.10;;;;;;4998270;28;20000;-62
2022/11/16 09:30:48;;;;;;;;;;;8.70;94.20;;;;;;4999692;28;19909;-57
2022/11/16 09:33:14;;;;;;;;;;;8.70;94.10;;;;;;4996456;28;19909;-60
2022/11/16 09:35:41;;;;;;;;;;;8.70;94.10;;;;;;5004971;28;19936;-62
2022/11/16 09:38:10;;;;;;;;;;;8.70;94.20;;;;;;5010734;28;20292;-61
2022/11/16 09:40:38;;;;;;;;;;;8.70;94.20;;;;;;4994802;28;19977;-60
2022/11/16 09:43:22;;;;;;;;;;;8.70;94.20;;;;;;5011607;28;19949;-61
2022/11/16 09:45:51;;;;;;;;;;;8.70;94.20;;;;;;4998801;28;19960;-61
2022/11/16 09:48:19;;;;;;;;;;;8.70;94.20;;;;;;4995894;28;20343;-60
2022/11/16 09:50:50;;;;;;;;;;;8.70;94.20;;;;;;5006585;28;19914;-60
2022/11/16 09:53:31;;;;;;;;;;;8.70;94.20;;;;;;4996586;28;19960;-60
2022/11/16 09:56:05;;;;;;;;;;;8.70;94.20;;;;;;5015968;28;19955;-60
2022/11/16 09:58:51;;;;;;;;;;;8.70;94.20;;;;;;5013527;28;19953;-59
2022/11/16 10:01:25;;;;;;;;;;;8.80;94.30;;;;;;5014672;28;19924;-60
2022/11/16 10:03:52;;;;;;;;;;;8.80;94.20;;;;;;5015456;28;20294;-58
2022/11/16 10:06:26;;;;;;;;;;;8.70;94.10;;;;;;5013317;28;19913;-57
2022/11/16 10:08:55;;;;;;;;;;;8.70;94.20;;;;;;4997361;28;20369;-58
2022/11/16 10:11:41;;;;;;;;;;;8.80;94.20;;;;;;4995697;28;19924;-57
2022/11/16 10:14:18;;;;;;;;;;;8.70;94.20;;;;;;4999813;28;19909;-58
2022/11/16 10:17:03;;;;;;;;;;;8.70;94.20;;;;;;5014289;28;19906;-54
2022/11/16 10:19:48;;;;;;;;;;;8.70;94.20;;;;;;5006317;28;19913;-56
2022/11/16 10:22:33;;;;;;;;;;;8.80;94.20;;;;;;4995450;28;19917;-55
2022/11/16 10:25:13;;;;;;;;;;;8.70;94.10;;;;;;5006626;28;19909;-56
2022/11/16 10:27:58;;;;;;;;;;;8.70;94.00;;;;;;4996278;28;19914;-57
2022/11/16 10:30:24;;;;;;;;;;;8.70;94.10;;;;;;5008312;28;19924;-54
2022/11/16 10:33:01;;;;;;;;;;;8.70;94.00;;;;;;5014940;28;19917;-56
2022/11/16 10:35:41;;;;;;;;;;;8.70;94.10;;;;;;5010482;28;19920;-58
2022/11/16 10:38:15;;;;;;;;;;;8.70;94.10;;;;;;5014822;28;19905;-58
2022/11/16 10:40:45;;;;;;;;;;;8.70;94.00;;;;;;5013630;28;20020;-57
2022/11/16 10:43:16;;;;;;;;;;;8.60;93.90;;;;;;5009069;28;20374;-59
2022/11/16 10:46:01;;;;;;;;;;;8.60;94.00;;;;;;5012547;28;19919;-58
2022/11/16 10:48:41;;;;;;;;;;;8.60;94.00;;;;;;5014134;28;19910;-58
2022/11/16 10:51:09;;;;;;;;;;;8.60;94.00;;;;;;5013564;28;19909;-58
2022/11/16 10:53:54;;;;;;;;;;;8.60;94.00;;;;;;5009200;28;20331;-58
2022/11/16 10:56:41;;;;;;;;;;;8.50;93.90;;;;;;5012499;28;19929;-57
2022/11/16 10:59:09;;;;;;;;;;;8.60;94.10;;;;;;5011254;28;20330;-60
2022/11/16 11:01:56;;;;;;;;;;;8.60;94.10;;;;;;5012909;28;19983;-58
2022/11/16 11:04:23;;;;;;;;;;;8.60;94.10;;;;;;5014111;28;19909;-58
2022/11/16 11:07:09;;;;;;;;;;;8.50;94.00;;;;;;5012724;28;19929;-52
2022/11/16 11:09:36;;;;;;;;;;;8.50;94.00;;;;;;5003328;28;19909;-51
2022/11/16 11:15:23;;;;;;;;;;;8.60;94.10;;;;;;5005765;28;19967;-49
2022/11/16 11:18:08;;;;;;;;;;;8.60;94.10;;;;;;4994703;28;19906;-54
2022/11/16 11:20:35;;;;;;;;;;;8.60;94.10;;;;;;5010015;28;19906;-55
2022/11/16 11:23:20;;;;;;;;;;;8.50;94.00;;;;;;4993939;28;19913;-57
2022/11/16 11:25:56;;;;;;;;;;;8.50;94.10;;;;;;4993427;28;19905;-58
2022/11/16 11:28:27;;;;;;;;;;;8.50;94.00;;;;;;4994006;28;19909;-60
2022/11/16 11:31:21;;;;;;;;;;;8.50;94.00;;;;;;4994321;28;20335;-58
2022/11/16 11:33:52;;;;;;;;;;;8.50;93.90;;;;;;4994410;28;19937;-58
2022/11/16 11:36:42;;;;;;;;;;;8.50;93.90;;;;;;4993999;28;19917;-60
2022/11/16 11:39:17;;;;;;;;;;;8.50;93.90;;;;;;5009457;28;20015;-56
2022/11/16 11:41:44;;;;;;;;;;;8.50;93.90;;;;;;4994329;28;19917;-56
2022/11/16 11:44:18;;;;;;;;;;;8.50;93.90;;;;;;4992848;28;19934;-54
2022/11/16 11:46:53;;;;;;;;;;;8.40;93.90;;;;;;4993593;28;19910;-51
2022/11/16 11:49:38;;;;;;;;;;;8.40;93.90;;;;;;4994309;28;20278;-52
2022/11/16 11:52:16;;;;;;;;;;;8.40;94.00;;;;;;5009676;28;19910;-57
2022/11/16 11:54:46;;;;;;;;;;;8.50;94.10;;;;;;4992186;28;19918;-58
2022/11/16 11:57:19;;;;;;;;;;;8.40;94.00;;;;;;4994223;28;19955;-58
2022/11/16 11:59:47;;;;;;;;;;;8.40;94.00;;;;;;4994781;28;19960;-57
2022/11/16 12:02:28;;;;;;;;;;;8.50;94.10;;;;;;4997898;28;19917;-51
2022/11/16 12:05:00;;;;;;;;;;;8.50;94.10;;;;;;4997894;28;19905;-53
2022/11/16 12:07:41;;;;;;;;;;;8.50;94.00;;;;;;4997413;28;19996;-54
2022/11/16 12:10:25;;;;;;;;;;;8.40;93.90;;;;;;4997924;28;19917;-53
2022/11/16 12:13:00;;;;;;;;;;;8.40;93.90;;;;;;4998011;28;20438;-59
2022/11/16 12:15:37;;;;;;;;;;;8.40;94.00;;;;;;4997936;28;19909;-59
2022/11/16 12:18:22;;;;;;;;;;;8.40;93.90;;;;;;4997983;28;19964;-59
2022/11/16 12:21:07;;;;;;;;;;;8.40;94.00;;;;;;5012957;28;19992;-61
2022/11/16 12:23:51;;;;;;;;;;;8.40;94.00;;;;;;4998076;28;19909;-59
2022/11/16 12:26:24;;;;;;;;;;;8.40;94.00;;;;;;4997727;28;19910;-56
2022/11/16 12:29:02;;;;;;;;;;;8.40;94.00;;;;;;4997823;28;19909;-53
2022/11/16 12:31:30;;;;;;;;;;;8.40;94.00;;;;;;4997684;28;19913;-58
2022/11/16 12:34:17;;;;;;;;;;;8.40;94.20;;;;;;4997409;28;19910;-55
2022/11/16 12:37:01;;;;;;;;;;;8.40;94.20;;;;;;4985801;28;19909;-54
2022/11/16 12:39:38;;;;;;;;;;;8.40;94.10;;;;;;4997384;28;19910;-55
2022/11/16 12:42:06;;;;;;;;;;;8.40;94.10;;;;;;4996972;28;19941;-55
2022/11/16 12:44:50;;;;;;;;;;;8.40;94.10;;;;;;5015726;28;19905;-58
2022/11/16 12:47:34;;;;;;;;;;;8.50;94.20;;;;;;5016904;28;20496;-60
2022/11/16 12:50:18;;;;;;;;;;;8.50;94.10;;;;;;5011146;28;20004;-61
2022/11/16 12:53:05;;;;;;;;;;;8.50;94.10;;;;;;4997295;28;19914;-60
2022/11/16 12:55:49;;;;;;;;;;;8.40;94.00;;;;;;4976534;28;20065;-58
2022/11/16 12:58:36;;;;;;;;;;;8.40;94.00;;;;;;4996889;28;19905;-55
2022/11/16 13:01:20;;;;;;;;;;;8.40;94.10;;;;;;5011253;28;19914;-56
2022/11/16 13:03:52;;;;;;;;;;;8.40;94.00;;;;;;4996969;28;19941;-52
2022/11/16 13:06:26;;;;;;;;;;;8.40;94.10;;;;;;4996526;28;19920;-54
2022/11/16 13:09:12;;;;;;;;;;;8.40;94.10;;;;;;4995812;28;19967;-57
2022/11/16 13:11:49;;;;;;;;;;;8.40;94.10;;;;;;4996198;28;19916;-58
2022/11/16 13:14:22;;;;;;;;;;;8.40;94.20;;;;;;4996689;28;19921;-52
2022/11/16 13:16:50;;;;;;;;;;;8.40;94.20;;;;;;4996994;28;20243;-54
2022/11/16 13:19:19;;;;;;;;;;;8.40;94.10;;;;;;4996617;28;19960;-51
2022/11/16 13:22:02;;;;;;;;;;;8.40;94.10;;;;;;5011804;28;19909;-50
2022/11/16 13:24:46;;;;;;;;;;;8.40;94.10;;;;;;4996848;28;20234;-55
2022/11/16 13:27:28;;;;;;;;;;;8.40;94.00;;;;;;4996367;28;19914;-56
2022/11/16 13:30:13;;;;;;;;;;;8.40;94.10;;;;;;4996435;28;19913;-55
2022/11/16 13:33:07;;;;;;;;;;;8.40;94.00;;;;;;4996440;28;20294;-58
2022/11/16 13:35:37;;;;;;;;;;;8.40;93.90;;;;;;4992999;28;19905;-52
2022/11/16 13:38:07;;;;;;;;;;;8.40;94.00;;;;;;4995639;28;19920;-52
2022/11/16 13:40:34;;;;;;;;;;;8.40;94.00;;;;;;4996022;28;19906;-53
2022/11/16 13:43:08;;;;;;;;;;;8.40;93.90;;;;;;4995852;28;19917;-48
2022/11/16 13:45:51;;;;;;;;;;;8.30;93.90;;;;;;4994880;28;19914;-49
2022/11/16 13:48:32;;;;;;;;;;;8.30;93.90;;;;;;4995495;28;19955;-50
2022/11/16 13:51:06;;;;;;;;;;;8.40;94.00;;;;;;4995671;28;20004;-47
2022/11/16 13:53:36;;;;;;;;;;;8.30;93.80;;;;;;5011503;28;19910;-47
2022/11/16 13:56:06;;;;;;;;;;;8.30;93.90;;;;;;5010275;28;20330;-49
2022/11/16 13:58:34;;;;;;;;;;;8.30;93.80;;;;;;4995984;28;19913;-48
2022/11/16 14:01:18;;;;;;;;;;;8.20;93.70;;;;;;4995530;28;19906;-49
2022/11/16 14:03:51;;;;;;;;;;;8.20;93.70;;;;;;4995770;28;20009;-48
2022/11/16 14:06:22;;;;;;;;;;;8.10;93.70;;;;;;4994341;28;20004;-49
2022/11/16 14:09:01;;;;;;;;;;;8.00;93.60;;;;;;4994820;28;19940;-48
2022/11/16 14:11:31;;;;;;;;;;;8.00;93.80;;;;;;4995688;28;19913;-46
2022/11/16 14:14:00;;;;;;;;;;;8.00;93.80;;;;;;4995793;28;19906;-46
2022/11/16 14:16:28;;;;;;;;;;;7.90;93.70;;;;;;4995237;28;19921;-46
2022/11/16 14:18:57;;;;;;;;;;;7.90;93.80;;;;;;4995884;28;19906;-45
2022/11/16 14:21:41;;;;;;;;;;;7.90;93.80;;;;;;5003616;28;19983;-46
2022/11/16 14:24:20;;;;;;;;;;;7.90;93.90;;;;;;4994624;28;19913;-45
2022/11/16 14:27:06;;;;;;;;;;;7.90;93.90;;;;;;4995247;28;19917;-46
2022/11/16 14:29:51;;;;;;;;;;;7.90;93.90;;;;;;4994778;28;19916;-47
2022/11/16 14:32:24;;;;;;;;;;;7.80;93.80;;;;;;4995404;28;19935;-47
2022/11/16 14:34:52;;;;;;;;;;;7.70;93.80;;;;;;5010715;28;20323;-49
2022/11/16 14:37:36;;;;;;;;;;;7.70;93.90;;;;;;4995184;28;19910;-46
2022/11/16 14:40:08;;;;;;;;;;;7.70;93.80;;;;;;5009365;28;19914;-46
2022/11/16 14:42:44;;;;;;;;;;;7.60;93.80;;;;;;4995295;28;19921;-45
2022/11/16 14:45:21;;;;;;;;;;;7.50;93.70;;;;;;4995069;28;19909;-46
2022/11/16 14:47:49;;;;;;;;;;;7.50;93.80;;;;;;5010138;28;19905;-46
2022/11/16 14:50:23;;;;;;;;;;;7.50;93.70;;;;;;5010387;28;19910;-45
2022/11/16 14:52:51;;;;;;;;;;;7.50;93.80;;;;;;4995032;28;19906;-45
2022/11/16 14:55:19;;;;;;;;;;;7.50;93.70;;;;;;4994557;28;20028;-45
2022/11/16 14:57:46;;;;;;;;;;;7.50;93.80;;;;;;4994454;28;19949;-45
2022/11/16 15:00:24;;;;;;;;;;;7.50;93.70;;;;;;4994415;28;19976;-47
2022/11/16 15:02:52;;;;;;;;;;;7.50;93.70;;;;;;4994640;28;20355;-45
2022/11/16 15:05:25;;;;;;;;;;;7.40;93.70;;;;;;4994809;28;19910;-45
2022/11/16 15:07:52;;;;;;;;;;;7.50;93.80;;;;;;4994402;28;20012;-45
2022/11/16 15:10:20;;;;;;;;;;;7.50;93.70;;;;;;4994502;28;20307;-46
2022/11/16 15:12:51;;;;;;;;;;;7.50;93.70;;;;;;4994806;28;19909;-46
2022/11/16 15:15:35;;;;;;;;;;;7.50;93.70;;;;;;4994839;28;19910;-45
2022/11/16 15:18:19;;;;;;;;;;;7.50;93.60;;;;;;5009796;28;19960;-46
2022/11/16 15:20:49;;;;;;;;;;;7.50;93.60;;;;;;4994310;28;19916;-45
2022/11/16 15:23:17;;;;;;;;;;;7.50;93.70;;;;;;4994094;28;19914;-45
2022/11/16 15:25:53;;;;;;;;;;;7.50;93.60;;;;;;4993999;28;20307;-45
2022/11/16 15:28:31;;;;;;;;;;;7.50;93.60;;;;;;5007966;28;20000;-44
2022/11/16 15:31:03;;;;;;;;;;;7.50;93.60;;;;;;4994456;28;19916;-45